Time;durP1;ratioP1;P1;durP2;ratioP2;P2;SDS_P1;SDS_P2;PMS_P1;PMS_P2;Temp;Humidity;BMP_temperature;BMP_pressure;BME280_temperature;BME280_humidity;BME280_pressure;Samples;Min_cycle;Max_cycle;Signal;HPM_P1;HPM_P2
2021/06/19 00:02:00;;;;;;;6.97;5.07;;;26.20;63.40;;;;;;5109167;28;20423;-44
2021/06/19 00:04:26;;;;;;;7.72;5.43;;;26.20;63.10;;;;;;5106011;28;20058;-46
2021/06/19 00:06:51;;;;;;;10.30;5.47;;;26.20;63.50;;;;;;5102036;28;20020;-45
2021/06/19 00:09:17;;;;;;;5.32;4.80;;;26.10;63.50;;;;;;5111950;27;20385;-44
2021/06/19 00:11:42;;;;;;;8.02;5.93;;;26.10;63.60;;;;;;5103217;28;20066;-44
2021/06/19 00:14:08;;;;;;;9.85;6.05;;;26.10;63.70;;;;;;5109339;28;20415;-45
2021/06/19 00:16:33;;;;;;;9.07;5.97;;;26.00;63.70;;;;;;5102096;28;20597;-46
2021/06/19 00:19:01;;;;;;;5.95;5.32;;;26.00;63.70;;;;;;5104344;28;20016;-44
2021/06/19 00:21:26;;;;;;;6.32;5.40;;;26.00;63.70;;;;;;5108789;28;20161;-44
2021/06/19 00:23:52;;;;;;;10.27;5.90;;;26.00;63.60;;;;;;5101095;28;20230;-44
2021/06/19 00:26:17;;;;;;;8.30;5.60;;;26.00;63.90;;;;;;5108598;28;20342;-46
2021/06/19 00:28:43;;;;;;;8.45;5.45;;;26.00;63.80;;;;;;5109013;28;20035;-44
2021/06/19 00:31:08;;;;;;;12.35;6.18;;;26.00;63.80;;;;;;5106293;28;20119;-45
2021/06/19 00:33:34;;;;;;;6.28;5.65;;;26.00;63.70;;;;;;5109013;28;20054;-45
2021/06/19 00:35:59;;;;;;;6.18;5.30;;;26.00;63.80;;;;;;5107967;28;20023;-44
2021/06/19 00:38:25;;;;;;;10.80;5.75;;;26.10;63.50;;;;;;5106098;28;20038;-44
2021/06/19 00:40:50;;;;;;;12.93;6.00;;;26.10;63.40;;;;;;5107829;28;20024;-44
2021/06/19 00:43:16;;;;;;;6.13;5.53;;;26.10;63.30;;;;;;5105461;28;20035;-46
2021/06/19 00:45:41;;;;;;;7.55;6.05;;;26.10;63.50;;;;;;5105222;28;20019;-45
2021/06/19 00:48:11;;;;;;;11.38;6.13;;;26.10;63.60;;;;;;5108613;28;20020;-44
2021/06/19 00:50:41;;;;;;;8.57;6.47;;;26.00;63.60;;;;;;5108460;28;20385;-46
2021/06/19 00:53:08;;;;;;;6.30;5.70;;;26.00;63.70;;;;;;5106903;28;20160;-44
2021/06/19 00:55:33;;;;;;;12.30;5.97;;;26.00;63.80;;;;;;5108799;28;20273;-43
2021/06/19 00:58:02;;;;;;;12.35;6.03;;;26.00;63.90;;;;;;5107442;28;20533;-46
2021/06/19 01:00:27;;;;;;;7.13;5.88;;;26.00;64.00;;;;;;5099930;28;20126;-45
2021/06/19 01:02:55;;;;;;;6.90;5.60;;;26.00;64.10;;;;;;5108219;28;20023;-43
2021/06/19 01:05:21;;;;;;;9.02;6.20;;;26.00;64.10;;;;;;5100914;28;20024;-44
2021/06/19 01:07:47;;;;;;;9.48;5.97;;;26.00;64.10;;;;;;5112639;28;20331;-44
2021/06/19 01:10:13;;;;;;;9.57;6.90;;;26.00;64.10;;;;;;5099679;28;20112;-44
2021/06/19 01:12:41;;;;;;;6.60;6.00;;;26.00;64.20;;;;;;5108690;28;20081;-46
2021/06/19 01:15:07;;;;;;;9.05;6.03;;;26.00;64.20;;;;;;5108333;28;20019;-44
2021/06/19 01:17:33;;;;;;;10.32;5.90;;;25.90;64.20;;;;;;5096205;28;20110;-46
2021/06/19 01:20:08;;;;;;;10.88;6.50;;;25.90;64.30;;;;;;5101063;28;20050;-45
2021/06/19 01:22:40;;;;;;;6.30;5.72;;;25.90;64.30;;;;;;5112119;28;20100;-43
2021/06/19 01:25:15;;;;;;;7.00;6.38;;;25.90;64.50;;;;;;5111046;28;20505;-45
2021/06/19 01:27:40;;;;;;;6.53;5.85;;;25.90;64.40;;;;;;5108538;27;20105;-46
2021/06/19 01:30:08;;;;;;;8.98;5.47;;;25.90;64.40;;;;;;5104630;28;20471;-44
2021/06/19 01:32:36;;;;;;;8.65;6.30;;;25.80;64.50;;;;;;5105329;28;20015;-44
2021/06/19 01:35:02;;;;;;;6.95;5.53;;;25.80;64.60;;;;;;5112230;28;20082;-46
2021/06/19 01:37:27;;;;;;;8.15;5.90;;;25.80;64.50;;;;;;5110577;27;20489;-44
2021/06/19 01:40:12;;;;;;;9.60;5.85;;;25.80;64.50;;;;;;5111649;28;20107;-44
2021/06/19 01:42:43;;;;;;;10.93;6.57;;;25.80;64.40;;;;;;5112221;28;20489;-45
2021/06/19 01:45:14;;;;;;;9.55;5.63;;;25.80;64.40;;;;;;5111229;28;20023;-44
2021/06/19 01:47:40;;;;;;;10.02;6.03;;;25.80;64.50;;;;;;5107621;28;20059;-45
2021/06/19 01:50:07;;;;;;;11.52;6.38;;;25.80;64.60;;;;;;5098759;27;20063;-45
2021/06/19 01:52:33;;;;;;;8.82;5.93;;;25.80;64.70;;;;;;5111757;28;20031;-45
2021/06/19 01:54:58;;;;;;;7.35;6.32;;;25.70;64.80;;;;;;5111882;28;20545;-44
2021/06/19 01:57:24;;;;;;;6.95;6.20;;;25.70;64.90;;;;;;5111720;28;20084;-47
2021/06/19 02:00:05;;;;;;;11.73;5.90;;;25.70;65.20;;;;;;5100618;28;20031;-44
2021/06/19 02:02:30;;;;;;;7.55;6.38;;;25.60;65.10;;;;;;5104750;28;20102;-45
2021/06/19 02:04:56;;;;;;;5.90;5.40;;;25.60;65.20;;;;;;5110135;28;20115;-45
2021/06/19 02:07:21;;;;;;;6.57;5.95;;;25.60;65.30;;;;;;5101314;28;20031;-44
2021/06/19 02:09:47;;;;;;;8.50;6.32;;;25.60;65.30;;;;;;5113611;27;20121;-43
2021/06/19 02:12:13;;;;;;;7.97;6.63;;;25.50;65.50;;;;;;5105688;27;20416;-44
2021/06/19 02:14:38;;;;;;;6.82;6.13;;;25.50;65.50;;;;;;5111484;28;20051;-44
2021/06/19 02:17:04;;;;;;;9.23;6.07;;;25.50;65.60;;;;;;5104042;28;20019;-45
2021/06/19 02:19:29;;;;;;;6.90;6.15;;;25.50;65.60;;;;;;5110551;28;20045;-46
2021/06/19 02:21:55;;;;;;;7.80;6.00;;;25.50;65.50;;;;;;5111320;28;20030;-44
2021/06/19 02:24:20;;;;;;;10.32;6.93;;;25.50;65.60;;;;;;5102944;28;20594;-44
2021/06/19 02:26:48;;;;;;;6.78;6.15;;;25.40;65.70;;;;;;5106163;28;20754;-44
2021/06/19 02:29:13;;;;;;;7.68;6.10;;;25.40;66.00;;;;;;5110398;28;20072;-44
2021/06/19 02:31:39;;;;;;;10.60;6.00;;;25.50;65.90;;;;;;5106778;28;20473;-43
2021/06/19 02:34:04;;;;;;;6.45;5.85;;;25.40;66.00;;;;;;5110927;28;20023;-44
2021/06/19 02:36:30;;;;;;;6.78;6.15;;;25.40;66.30;;;;;;5111322;27;20384;-44
2021/06/19 02:38:55;;;;;;;8.07;6.50;;;25.30;67.00;;;;;;5115953;27;20255;-45
2021/06/19 02:41:21;;;;;;;6.90;6.30;;;25.30;67.00;;;;;;5111087;27;20036;-45
2021/06/19 02:43:47;;;;;;;7.07;6.07;;;25.20;67.60;;;;;;5109242;28;20384;-44
2021/06/19 02:46:12;;;;;;;7.53;6.80;;;25.10;68.90;;;;;;5107390;28;20024;-45
2021/06/19 02:48:38;;;;;;;10.48;6.60;;;25.00;69.60;;;;;;5111004;28;20028;-45
2021/06/19 02:51:03;;;;;;;7.25;6.55;;;24.80;70.30;;;;;;5108364;28;20381;-44
2021/06/19 02:53:29;;;;;;;7.78;6.97;;;24.70;71.40;;;;;;5110271;28;20221;-45
2021/06/19 02:55:55;;;;;;;8.27;6.78;;;24.50;72.20;;;;;;5110446;28;20023;-46
2021/06/19 02:58:21;;;;;;;8.93;7.40;;;24.40;72.80;;;;;;5110712;28;20035;-43
2021/06/19 03:00:46;;;;;;;7.90;7.10;;;24.30;73.50;;;;;;5107285;28;20038;-44
2021/06/19 03:03:12;;;;;;;7.63;6.93;;;24.20;74.50;;;;;;5110049;28;20050;-44
2021/06/19 03:05:38;;;;;;;7.50;6.75;;;24.10;74.90;;;;;;5109888;28;20080;-44
2021/06/19 03:08:05;;;;;;;8.57;7.65;;;24.00;75.40;;;;;;5115666;27;20078;-44
2021/06/19 03:10:33;;;;;;;8.20;7.38;;;23.90;76.30;;;;;;5116092;27;20019;-46
2021/06/19 03:12:59;;;;;;;9.90;7.80;;;23.90;77.30;;;;;;5109993;28;20046;-43
2021/06/19 03:15:25;;;;;;;9.43;7.25;;;23.80;77.50;;;;;;5110730;28;20370;-44
2021/06/19 03:17:51;;;;;;;8.30;7.07;;;23.70;77.70;;;;;;5104569;28;20031;-45
2021/06/19 03:20:19;;;;;;;8.18;7.38;;;23.70;75.80;;;;;;5103102;28;20105;-45
2021/06/19 03:22:55;;;;;;;8.38;7.57;;;23.80;75.90;;;;;;5105336;28;20023;-45
2021/06/19 03:25:24;;;;;;;10.43;8.05;;;23.80;75.30;;;;;;5110147;28;20110;-43
2021/06/19 03:27:50;;;;;;;9.98;7.43;;;23.90;75.10;;;;;;5101584;28;20512;-43
2021/06/19 03:30:17;;;;;;;8.85;7.95;;;24.00;74.90;;;;;;5109044;28;20032;-43
2021/06/19 03:32:43;;;;;;;9.70;7.82;;;24.00;75.10;;;;;;5109732;28;20489;-43
2021/06/19 03:35:09;;;;;;;8.45;7.50;;;24.10;74.90;;;;;;5108474;28;20055;-43
2021/06/19 03:37:35;;;;;;;8.68;7.43;;;24.10;75.00;;;;;;5097445;28;20019;-43
2021/06/19 03:40:01;;;;;;;8.27;7.47;;;24.20;75.00;;;;;;5094389;28;20043;-45
2021/06/19 03:42:28;;;;;;;8.15;7.45;;;24.20;75.30;;;;;;5106914;28;20111;-44
2021/06/19 03:44:53;;;;;;;11.98;8.52;;;24.30;75.70;;;;;;5116915;27;20031;-43
2021/06/19 03:47:19;;;;;;;9.90;7.20;;;24.30;75.70;;;;;;5116848;27;20475;-43
2021/06/19 03:49:44;;;;;;;12.57;8.73;;;24.40;75.80;;;;;;5112297;27;20019;-43
2021/06/19 03:52:09;;;;;;;13.40;9.00;;;24.40;76.00;;;;;;5128918;27;20418;-43
2021/06/19 03:54:37;;;;;;;9.88;8.20;;;24.40;76.30;;;;;;5120887;27;20289;-43
2021/06/19 03:57:07;;;;;;;11.45;8.48;;;24.40;76.40;;;;;;5109499;28;20181;-44
2021/06/19 03:59:33;;;;;;;9.00;8.10;;;24.50;76.80;;;;;;5108255;28;20495;-46
2021/06/19 04:01:59;;;;;;;13.45;8.80;;;24.50;77.00;;;;;;5104797;28;20515;-45
2021/06/19 04:04:24;;;;;;;8.98;8.18;;;24.50;77.30;;;;;;5107973;28;20101;-43
2021/06/19 04:06:50;;;;;;;11.35;9.38;;;24.50;77.70;;;;;;5109572;28;20016;-44
2021/06/19 04:09:16;;;;;;;13.75;9.45;;;24.60;78.10;;;;;;5111492;27;20582;-46
2021/06/19 04:11:42;;;;;;;14.93;10.18;;;24.60;78.80;;;;;;5109237;28;20034;-47
2021/06/19 04:14:08;;;;;;;11.20;9.57;;;24.60;79.00;;;;;;5109157;28;20495;-44
2021/06/19 04:16:33;;;;;;;11.52;10.05;;;24.70;79.40;;;;;;5099003;28;20032;-45
2021/06/19 04:18:59;;;;;;;12.30;10.52;;;24.70;79.70;;;;;;5108813;28;20039;-45
2021/06/19 04:21:24;;;;;;;10.20;9.13;;;24.70;80.30;;;;;;5102963;28;20084;-44
2021/06/19 04:23:50;;;;;;;12.40;10.10;;;24.70;80.90;;;;;;5108140;28;20032;-46
2021/06/19 04:26:16;;;;;;;12.95;10.25;;;24.70;81.10;;;;;;5105311;28;20455;-45
2021/06/19 04:28:41;;;;;;;11.35;9.55;;;24.70;81.40;;;;;;5107869;28;20066;-45
2021/06/19 04:31:07;;;;;;;12.68;10.20;;;24.70;81.70;;;;;;5106590;28;20384;-46
2021/06/19 04:33:32;;;;;;;12.13;9.80;;;24.70;82.20;;;;;;5108611;28;20027;-46
2021/06/19 04:35:58;;;;;;;11.05;9.57;;;24.70;83.10;;;;;;5109126;28;20125;-46
2021/06/19 04:38:23;;;;;;;12.05;10.52;;;24.70;83.80;;;;;;5106294;28;20065;-47
2021/06/19 04:40:59;;;;;;;12.75;10.25;;;24.70;84.50;;;;;;5108083;28;20097;-45
2021/06/19 04:43:40;;;;;;;12.30;10.35;;;24.70;85.20;;;;;;5107756;28;20053;-45
2021/06/19 04:46:05;;;;;;;;;;;24.70;86.20;;;;;;5109100;28;20020;-45
2021/06/19 04:48:31;;;;;;;13.02;10.68;;;24.70;87.70;;;;;;5104410;28;20385;-45
2021/06/19 04:50:56;;;;;;;11.55;10.30;;;24.70;88.10;;;;;;5106776;28;20053;-45
2021/06/19 04:53:23;;;;;;;15.88;10.63;;;24.70;89.40;;;;;;5107617;28;20127;-44
2021/06/19 04:55:48;;;;;;;18.45;10.20;;;24.70;90.10;;;;;;5103647;28;20072;-47
2021/06/19 04:58:14;;;;;;;12.43;10.43;;;24.80;90.60;;;;;;5112922;28;20079;-57
2021/06/19 05:00:39;;;;;;;13.73;10.85;;;24.70;91.00;;;;;;5101009;28;20032;-48
2021/06/19 05:03:05;;;;;;;13.07;10.85;;;24.80;91.30;;;;;;5106891;28;20027;-45
2021/06/19 05:05:32;;;;;;;17.10;10.38;;;24.80;91.70;;;;;;5098464;28;20110;-43
2021/06/19 05:07:57;;;;;;;13.00;10.60;;;24.90;92.20;;;;;;5095316;27;20020;-47
2021/06/19 05:10:23;;;;;;;12.38;10.48;;;24.90;92.10;;;;;;5106485;27;20405;-44
2021/06/19 05:12:48;;;;;;;17.42;10.77;;;25.00;92.30;;;;;;5109323;28;20035;-45
2021/06/19 05:15:18;;;;;;;14.98;11.18;;;25.00;92.50;;;;;;5112161;28;20032;-43
2021/06/19 05:17:44;;;;;;;12.20;10.10;;;25.00;92.20;;;;;;5097878;28;20027;-42
2021/06/19 05:20:10;;;;;;;14.07;11.05;;;25.10;92.50;;;;;;5095149;28;20087;-50
2021/06/19 05:22:36;;;;;;;15.32;11.55;;;25.10;92.80;;;;;;5111383;28;20023;-44
2021/06/19 05:25:04;;;;;;;15.07;10.80;;;25.10;92.90;;;;;;5107657;28;20721;-43
2021/06/19 05:27:29;;;;;;;16.40;10.30;;;25.20;93.00;;;;;;5112145;28;20110;-43
2021/06/19 05:29:55;;;;;;;16.92;10.90;;;25.30;93.10;;;;;;5110377;28;20115;-43
2021/06/19 05:32:22;;;;;;;15.25;11.25;;;25.30;93.30;;;;;;5111638;28;20032;-44
2021/06/19 05:34:48;;;;;;;14.52;10.50;;;25.40;93.60;;;;;;5112246;28;20329;-43
2021/06/19 05:37:13;;;;;;;20.75;11.98;;;25.40;93.70;;;;;;5099371;28;20398;-43
2021/06/19 05:39:39;;;;;;;14.23;11.10;;;25.40;93.80;;;;;;5107773;27;20024;-43
2021/06/19 05:42:05;;;;;;;15.95;11.57;;;25.50;93.40;;;;;;5118031;27;20069;-45
2021/06/19 05:44:30;;;;;;;12.48;10.43;;;25.60;93.60;;;;;;5111893;28;20484;-43
2021/06/19 05:46:56;;;;;;;18.17;10.77;;;25.60;93.70;;;;;;5093742;28;20084;-45
2021/06/19 05:49:21;;;;;;;19.58;11.75;;;25.60;93.60;;;;;;5089720;28;20034;-42
2021/06/19 05:51:47;;;;;;;15.90;10.90;;;25.60;93.80;;;;;;5090992;28;20501;-43
2021/06/19 05:54:12;;;;;;;21.55;11.23;;;25.60;94.00;;;;;;5091377;28;20055;-44
2021/06/19 05:56:38;;;;;;;16.67;11.05;;;25.70;94.10;;;;;;5089290;28;20070;-44
2021/06/19 05:59:03;;;;;;;19.38;11.90;;;25.80;94.30;;;;;;5091206;28;20035;-43
2021/06/19 06:01:32;;;;;;;18.55;11.68;;;25.80;94.70;;;;;;5108600;28;20322;-45
2021/06/19 06:03:58;;;;;;;15.60;11.80;;;25.90;95.00;;;;;;5111626;28;20024;-43
2021/06/19 06:06:24;;;;;;;13.93;11.32;;;25.80;95.30;;;;;;5110139;28;20019;-42
2021/06/19 06:08:49;;;;;;;13.70;10.98;;;25.80;95.20;;;;;;5116798;27;20027;-44
2021/06/19 06:11:15;;;;;;;18.33;11.52;;;26.00;95.50;;;;;;5109108;27;20043;-46
2021/06/19 06:13:41;;;;;;;17.38;11.68;;;25.90;95.50;;;;;;5109831;28;20023;-44
2021/06/19 06:16:06;;;;;;;17.50;11.90;;;26.00;95.80;;;;;;5110940;27;20042;-44
2021/06/19 06:18:32;;;;;;;14.23;11.40;;;26.00;96.00;;;;;;5100918;28;20134;-44
2021/06/19 06:20:58;;;;;;;20.20;12.80;;;26.00;96.10;;;;;;5109467;28;20111;-46
2021/06/19 06:23:24;;;;;;;18.00;11.68;;;26.10;96.30;;;;;;5109659;28;20395;-44
2021/06/19 06:25:51;;;;;;;23.90;12.38;;;26.10;96.10;;;;;;5116511;27;20011;-47
2021/06/19 06:28:16;;;;;;;20.08;11.88;;;26.20;96.50;;;;;;5111498;27;20058;-44
2021/06/19 06:30:42;;;;;;;21.35;12.57;;;26.20;96.30;;;;;;5107628;28;20055;-46
2021/06/19 06:33:08;;;;;;;22.67;10.45;;;26.30;96.00;;;;;;5110929;28;20049;-44
2021/06/19 06:35:34;;;;;;;16.30;10.52;;;26.30;95.50;;;;;;5110047;28;20070;-44
2021/06/19 06:37:59;;;;;;;20.67;11.05;;;26.30;95.30;;;;;;5103869;28;20077;-44
2021/06/19 06:40:25;;;;;;;24.27;10.80;;;26.30;95.10;;;;;;5118698;27;20065;-45
2021/06/19 06:42:50;;;;;;;24.75;11.25;;;26.30;94.90;;;;;;5110933;28;20043;-45
2021/06/19 06:45:16;;;;;;;18.60;10.10;;;26.40;94.80;;;;;;5109829;28;20045;-44
2021/06/19 06:47:41;;;;;;;22.05;10.20;;;26.50;94.20;;;;;;5109094;28;20024;-45
2021/06/19 06:50:09;;;;;;;14.13;10.00;;;26.60;94.50;;;;;;5108798;28;20027;-45
2021/06/19 06:52:35;;;;;;;16.95;9.88;;;26.80;94.20;;;;;;5109211;28;20035;-45
2021/06/19 06:55:05;;;;;;;16.77;9.13;;;26.90;94.20;;;;;;5110582;28;20027;-46
2021/06/19 06:57:31;;;;;;;13.77;8.68;;;27.10;93.30;;;;;;5110579;28;20042;-45
2021/06/19 06:59:56;;;;;;;14.43;9.18;;;27.10;93.20;;;;;;5100207;28;20413;-45
2021/06/19 07:02:22;;;;;;;14.73;9.30;;;27.20;92.80;;;;;;5110261;28;20024;-44
2021/06/19 07:04:49;;;;;;;14.60;9.18;;;27.30;92.70;;;;;;5110942;28;20035;-44
2021/06/19 07:07:14;;;;;;;13.77;8.00;;;27.30;92.70;;;;;;5109585;28;20171;-45
2021/06/19 07:09:40;;;;;;;13.75;9.35;;;27.20;92.70;;;;;;5111939;27;20020;-44
2021/06/19 07:12:06;;;;;;;18.00;8.38;;;26.90;92.40;;;;;;5107195;28;20170;-46
2021/06/19 07:14:31;;;;;;;14.05;8.43;;;26.90;92.50;;;;;;5100940;28;20028;-47
2021/06/19 07:16:57;;;;;;;9.27;7.57;;;26.90;92.40;;;;;;5097165;28;20106;-44
2021/06/19 07:19:23;;;;;;;14.02;8.50;;;27.00;92.40;;;;;;5100980;28;20853;-45
2021/06/19 07:21:48;;;;;;;9.02;7.82;;;27.00;92.70;;;;;;5095061;28;20023;-45
2021/06/19 07:24:14;;;;;;;11.52;7.60;;;27.00;92.40;;;;;;5101655;28;20055;-46
2021/06/19 07:26:39;;;;;;;10.13;7.15;;;27.10;92.70;;;;;;5103190;28;20362;-45
2021/06/19 07:29:04;;;;;;;11.63;7.07;;;27.30;92.30;;;;;;5099106;28;20028;-45
2021/06/19 07:31:30;;;;;;;10.43;6.75;;;27.60;91.10;;;;;;5100646;28;20077;-46
2021/06/19 07:33:56;;;;;;;6.90;5.60;;;27.70;90.40;;;;;;5099461;28;20035;-45
2021/06/19 07:36:21;;;;;;;11.70;5.32;;;28.00;90.40;;;;;;5093287;28;20472;-45
2021/06/19 07:38:47;;;;;;;8.98;4.93;;;28.20;87.50;;;;;;5103496;28;20023;-47
2021/06/19 07:41:12;;;;;;;6.65;4.60;;;28.40;85.00;;;;;;5096392;27;20035;-45
2021/06/19 07:43:39;;;;;;;6.43;4.65;;;28.30;84.60;;;;;;5094680;27;20078;-45
2021/06/19 07:46:05;;;;;;;10.02;5.25;;;28.40;83.70;;;;;;5111732;27;20091;-45
2021/06/19 07:48:30;;;;;;;5.68;4.10;;;28.50;82.90;;;;;;5114649;27;20094;-46
2021/06/19 07:50:56;;;;;;;7.97;4.10;;;28.70;81.50;;;;;;5121007;27;20418;-47
2021/06/19 07:53:22;;;;;;;8.88;4.10;;;28.70;81.40;;;;;;5130758;27;20406;-46
2021/06/19 07:55:47;;;;;;;6.97;4.20;;;28.70;81.80;;;;;;5111290;27;20548;-47
2021/06/19 07:58:13;;;;;;;9.38;4.47;;;28.70;80.70;;;;;;5109499;28;20019;-45
2021/06/19 08:00:39;;;;;;;8.30;5.47;;;28.70;81.70;;;;;;5104875;28;20026;-45
2021/06/19 08:03:05;;;;;;;11.15;5.15;;;29.00;81.60;;;;;;5107998;28;20039;-45
2021/06/19 08:05:30;;;;;;;6.50;4.97;;;29.30;81.10;;;;;;5108478;28;20103;-46
2021/06/19 08:07:56;;;;;;;8.90;5.35;;;29.60;80.40;;;;;;5105279;28;20613;-46
2021/06/19 08:10:22;;;;;;;7.20;3.88;;;30.00;79.60;;;;;;5108015;28;20491;-45
2021/06/19 08:12:49;;;;;;;7.60;4.05;;;30.90;77.80;;;;;;5107743;28;20027;-45
2021/06/19 08:15:15;;;;;;;5.95;4.03;;;31.20;75.20;;;;;;5109084;28;20035;-44
2021/06/19 08:17:41;;;;;;;9.13;4.32;;;31.70;73.30;;;;;;5091933;28;20020;-45
2021/06/19 08:20:07;;;;;;;10.18;4.13;;;31.90;71.70;;;;;;5090743;28;20401;-45
2021/06/19 08:22:32;;;;;;;3.80;3.50;;;32.20;72.10;;;;;;5105430;28;20371;-47
2021/06/19 08:24:58;;;;;;;7.53;4.00;;;32.90;70.00;;;;;;5104530;28;20092;-46
2021/06/19 08:27:25;;;;;;;6.95;3.85;;;33.30;67.50;;;;;;5092535;28;20016;-46
2021/06/19 08:29:52;;;;;;;5.18;3.70;;;33.30;66.20;;;;;;5091065;28;20103;-45
2021/06/19 08:32:18;;;;;;;8.45;3.63;;;34.00;65.60;;;;;;5101616;27;20034;-46
2021/06/19 08:34:44;;;;;;;5.57;3.88;;;34.90;62.40;;;;;;5095358;27;20028;-45
2021/06/19 08:37:10;;;;;;;8.77;3.22;;;35.30;62.40;;;;;;5088119;28;20063;-46
2021/06/19 08:39:36;;;;;;;7.80;4.38;;;36.30;59.70;;;;;;5092914;27;20929;-46
2021/06/19 08:42:02;;;;;;;7.30;3.60;;;36.70;57.60;;;;;;5094035;28;20031;-45
2021/06/19 08:44:29;;;;;;;3.70;3.30;;;36.00;58.80;;;;;;5089839;28;20089;-46
2021/06/19 08:46:57;;;;;;;10.32;3.92;;;35.60;58.70;;;;;;5090769;28;20545;-45
2021/06/19 08:49:24;;;;;;;5.63;3.38;;;35.00;58.80;;;;;;5085646;27;20051;-45
2021/06/19 08:51:52;;;;;;;6.47;3.42;;;34.00;61.50;;;;;;5088884;28;20018;-45
2021/06/19 08:54:18;;;;;;;6.95;3.47;;;33.90;62.20;;;;;;5094479;28;20497;-45
2021/06/19 08:56:44;;;;;;;6.25;3.80;;;34.40;61.10;;;;;;5092643;28;20226;-44
2021/06/19 08:59:09;;;;;;;9.98;3.70;;;33.50;61.70;;;;;;5090628;28;20436;-44
2021/06/19 09:01:35;;;;;;;5.20;3.83;;;33.50;62.90;;;;;;5087206;28;20032;-44
2021/06/19 09:04:04;;;;;;;9.55;4.30;;;33.80;62.80;;;;;;5091868;28;20476;-44
2021/06/19 09:06:32;;;;;;;8.73;3.60;;;33.80;62.20;;;;;;5091496;28;20107;-44
2021/06/19 09:09:14;;;;;;;6.35;3.25;;;34.30;61.20;;;;;;5093441;28;20027;-46
2021/06/19 09:11:46;;;;;;;5.60;3.72;;;34.90;60.10;;;;;;5088391;28;20035;-44
2021/06/19 09:14:23;;;;;;;7.07;3.50;;;34.80;59.00;;;;;;5092837;28;20032;-44
2021/06/19 09:17:02;;;;;;;8.27;3.78;;;34.40;59.60;;;;;;5089029;28;20548;-44
2021/06/19 09:19:33;;;;;;;6.72;3.63;;;34.10;60.90;;;;;;5105692;27;20032;-44
2021/06/19 09:22:18;;;;;;;6.72;3.80;;;33.70;61.50;;;;;;5092084;28;20016;-45
2021/06/19 09:24:56;;;;;;;7.95;6.15;;;33.60;63.50;;;;;;5089123;28;20016;-45
2021/06/19 09:27:36;;;;;;;7.63;4.38;;;33.20;62.70;;;;;;5090727;28;20015;-48
2021/06/19 09:30:05;;;;;;;5.47;4.57;;;32.80;63.20;;;;;;5091575;28;20262;-45
2021/06/19 09:32:31;;;;;;;8.18;4.70;;;32.70;63.80;;;;;;5090839;28;20027;-45
2021/06/19 09:35:16;;;;;;;10.45;4.05;;;32.60;64.00;;;;;;5090658;28;20036;-45
2021/06/19 09:37:44;;;;;;;7.97;3.90;;;32.50;65.20;;;;;;5102142;28;20496;-45
2021/06/19 09:40:25;;;;;;;5.15;4.00;;;32.20;64.70;;;;;;5097981;28;20035;-46
2021/06/19 09:42:50;;;;;;;6.38;3.80;;;31.50;64.20;;;;;;5109975;28;20035;-45
2021/06/19 09:45:24;;;;;;;9.48;4.65;;;32.20;65.60;;;;;;5103202;27;20036;-47
2021/06/19 09:47:50;;;;;;;7.80;4.13;;;32.70;63.30;;;;;;5106795;28;20522;-45
2021/06/19 09:50:20;;;;;;;8.10;4.13;;;34.10;61.60;;;;;;5101789;28;20028;-47
2021/06/19 09:52:46;;;;;;;;;;;35.20;57.80;;;;;;5106923;28;20023;-45
2021/06/19 09:55:13;;;;;;;5.68;4.65;;;35.40;57.50;;;;;;5111418;28;19904;-46
2021/06/19 09:57:46;;;;;;;12.90;5.03;;;35.30;57.40;;;;;;5102926;28;20107;-45
2021/06/19 10:00:15;;;;;;;7.88;5.57;;;35.20;57.70;;;;;;5101207;28;20032;-45
2021/06/19 10:02:41;;;;;;;12.88;4.65;;;34.30;58.90;;;;;;5107617;28;20451;-46
2021/06/19 10:05:07;;;;;;;9.63;4.15;;;34.20;59.20;;;;;;5110541;28;20038;-47
2021/06/19 10:07:33;;;;;;;7.72;4.57;;;33.60;60.20;;;;;;5111014;28;20026;-45
2021/06/19 10:10:00;;;;;;;6.40;3.88;;;34.50;60.30;;;;;;5108171;27;20406;-45
2021/06/19 10:12:28;;;;;;;6.38;3.80;;;35.60;56.90;;;;;;5094001;27;20546;-47
2021/06/19 10:14:58;;;;;;;8.88;3.55;;;36.60;54.40;;;;;;5111982;28;20051;-48
2021/06/19 10:17:33;;;;;;;7.55;3.58;;;37.30;51.40;;;;;;5107977;28;20027;-45
2021/06/19 10:20:02;;;;;;;7.30;3.55;;;37.90;52.50;;;;;;5095286;28;20525;-48
2021/06/19 10:22:30;;;;;;;7.82;3.90;;;38.50;51.90;;;;;;5106677;28;20108;-47
2021/06/19 10:24:58;;;;;;;5.88;3.30;;;39.50;50.90;;;;;;5096566;28;20016;-47
2021/06/19 10:27:28;;;;;;;4.85;3.28;;;40.40;47.70;;;;;;5108334;28;20480;-46
2021/06/19 10:29:56;;;;;;;8.05;3.22;;;40.60;46.30;;;;;;5103260;28;20477;-46
2021/06/19 10:32:45;;;;;;;6.47;3.60;;;41.10;45.50;;;;;;5102405;28;20019;-46
2021/06/19 10:35:13;;;;;;;6.13;3.00;;;41.60;45.00;;;;;;5110554;28;20039;-46
2021/06/19 10:37:39;;;;;;;4.93;2.70;;;41.10;45.20;;;;;;5099756;28;20034;-46
2021/06/19 10:40:26;;;;;;;6.50;3.28;;;40.90;45.90;;;;;;5100436;27;20481;-46
2021/06/19 10:42:54;;;;;;;4.72;3.03;;;41.30;45.90;;;;;;5105376;27;20035;-45
2021/06/19 10:45:29;;;;;;;7.53;3.42;;;41.30;46.40;;;;;;5098846;28;20016;-46
2021/06/19 10:48:06;;;;;;;6.60;3.45;;;41.10;44.40;;;;;;5096809;28;20032;-47
2021/06/19 10:50:32;;;;;;;8.45;3.17;;;40.70;45.50;;;;;;5102777;27;20157;-46
2021/06/19 10:53:07;;;;;;;3.95;3.10;;;40.70;43.70;;;;;;5095848;28;20402;-46
2021/06/19 10:55:55;;;;;;;6.82;3.13;;;41.30;43.20;;;;;;5099576;28;20389;-46
2021/06/19 10:58:34;;;;;;;4.17;2.70;;;41.50;42.50;;;;;;5099175;28;20024;-46
2021/06/19 11:01:07;;;;;;;;;;;41.30;41.90;;;;;;5100480;28;20053;-46
2021/06/19 11:03:56;;;;;;;4.78;2.33;;;41.10;42.00;;;;;;5099598;28;19915;-47
2021/06/19 11:06:36;;;;;;;4.40;2.60;;;41.10;41.10;;;;;;5101097;28;20023;-47
2021/06/19 11:09:15;;;;;;;6.47;2.65;;;41.10;42.10;;;;;;5098269;28;20069;-47
2021/06/19 11:11:54;;;;;;;4.07;2.30;;;41.30;43.50;;;;;;5103969;28;20051;-46
2021/06/19 11:14:46;;;;;;;5.97;3.05;;;40.80;41.90;;;;;;5110966;28;20042;-46
2021/06/19 11:17:21;;;;;;;5.43;2.65;;;40.60;41.50;;;;;;5103579;28;20027;-45
2021/06/19 11:19:55;;;;;;;4.38;2.50;;;40.70;42.00;;;;;;5102300;28;20036;-46
2021/06/19 11:22:35;;;;;;;6.18;2.88;;;41.30;42.10;;;;;;5103919;28;20026;-48
2021/06/19 11:25:29;;;;;;;6.63;3.38;;;41.00;41.60;;;;;;5097286;28;20050;-45
2021/06/19 11:28:20;;;;;;;4.90;3.05;;;40.50;42.60;;;;;;5103747;28;20369;-48
2021/06/19 11:31:15;;;;;;;4.57;2.63;;;40.70;42.90;;;;;;5099523;28;20034;-46
2021/06/19 11:33:42;;;;;;;3.95;2.65;;;40.60;41.50;;;;;;5100975;27;20085;-46
2021/06/19 11:36:07;;;;;;;6.50;3.35;;;41.20;41.70;;;;;;5098798;28;20031;-45
2021/06/19 11:38:56;;;;;;;6.03;2.47;;;41.30;42.60;;;;;;5092552;27;20385;-46
2021/06/19 11:41:43;;;;;;;5.93;2.95;;;40.50;42.00;;;;;;5097071;27;20032;-46
2021/06/19 11:44:14;;;;;;;2.60;2.25;;;41.20;43.30;;;;;;5091212;27;20032;-48
2021/06/19 11:46:47;;;;;;;2.50;2.30;;;40.70;41.10;;;;;;5093157;27;20123;-48
2021/06/19 11:49:12;;;;;;;4.10;2.22;;;40.50;41.40;;;;;;5090976;27;20110;-46
2021/06/19 11:51:38;;;;;;;3.50;2.35;;;41.50;40.50;;;;;;5090334;27;20468;-45
2021/06/19 11:54:06;;;;;;;4.60;2.38;;;41.70;40.90;;;;;;5091885;27;20020;-48
2021/06/19 11:56:31;;;;;;;4.50;2.60;;;41.30;41.10;;;;;;5090630;27;20038;-46
2021/06/19 11:59:01;;;;;;;3.92;2.80;;;40.60;43.00;;;;;;5104514;27;20114;-45
2021/06/19 12:01:29;;;;;;;5.50;2.35;;;40.70;44.40;;;;;;5098267;27;20027;-46
2021/06/19 12:03:59;;;;;;;7.13;2.88;;;40.70;41.80;;;;;;5106409;27;20043;-46
2021/06/19 12:06:48;;;;;;;3.28;1.85;;;39.90;42.30;;;;;;5091377;27;20542;-46
2021/06/19 12:09:17;;;;;;;3.35;2.25;;;39.30;43.30;;;;;;5092351;27;20035;-46
2021/06/19 12:11:44;;;;;;;3.88;2.35;;;38.90;41.70;;;;;;5090250;28;20528;-45
2021/06/19 12:14:28;;;;;;;4.65;3.30;;;38.70;43.30;;;;;;5104046;27;20028;-48
2021/06/19 12:17:13;;;;;;;5.28;4.78;;;38.30;45.20;;;;;;5094582;27;20031;-45
2021/06/19 12:19:41;;;;;;;2.17;1.95;;;37.70;42.70;;;;;;5094418;27;20028;-45
2021/06/19 12:22:12;;;;;;;5.10;2.47;;;37.30;45.40;;;;;;5094294;27;20028;-45
2021/06/19 12:24:48;;;;;;;4.25;1.67;;;36.80;46.00;;;;;;5095877;27;20028;-46
2021/06/19 12:27:19;;;;;;;1.80;1.70;;;36.70;39.60;;;;;;5095434;27;20247;-45
2021/06/19 12:29:47;;;;;;;3.90;2.13;;;36.70;41.30;;;;;;5094391;27;20023;-46
2021/06/19 12:32:31;;;;;;;2.97;2.00;;;36.40;42.30;;;;;;5096819;27;20048;-46
2021/06/19 12:34:59;;;;;;;2.05;1.85;;;36.70;43.00;;;;;;5094860;27;20508;-45
2021/06/19 12:37:33;;;;;;;2.28;1.70;;;36.60;45.80;;;;;;5099112;27;20094;-46
2021/06/19 12:40:01;;;;;;;5.13;2.10;;;36.40;42.50;;;;;;5095768;28;20242;-47
2021/06/19 12:42:46;;;;;;;3.58;2.05;;;36.40;44.00;;;;;;5095618;28;20028;-45
2021/06/19 12:45:23;;;;;;;3.05;2.20;;;36.20;43.10;;;;;;5097647;28;20027;-46
2021/06/19 12:47:51;;;;;;;2.75;1.60;;;36.00;44.30;;;;;;5088733;28;20028;-45
2021/06/19 12:50:19;;;;;;;3.65;2.03;;;36.10;45.20;;;;;;5088612;28;20050;-45